sensor_id;sensor_type;location;lat;lon;timestamp;pressure;altitude;pressure_sealevel;temperature;humidity
62725;BME280;49026;52.600;4.694;2023-12-29T00:02:18;100415.97;;;9.81;98.09
62725;BME280;49026;52.600;4.694;2023-12-29T00:04:46;100429.78;;;9.85;98.14
62725;BME280;49026;52.600;4.694;2023-12-29T00:07:13;100430.63;;;9.85;98.16
62725;BME280;49026;52.600;4.694;2023-12-29T00:09:39;100414.06;;;9.85;98.16
62725;BME280;49026;52.600;4.694;2023-12-29T00:12:06;100414.06;;;9.85;98.51
62725;BME280;49026;52.600;4.694;2023-12-29T00:14:32;100418.38;;;9.86;98.79
62725;BME280;49026;52.600;4.694;2023-12-29T00:16:57;100404.41;;;9.85;98.63
62725;BME280;49026;52.600;4.694;2023-12-29T00:19:22;100401.78;;;9.85;98.49
62725;BME280;49026;52.600;4.694;2023-12-29T00:21:48;100393.06;;;9.85;97.97
62725;BME280;49026;52.600;4.694;2023-12-29T00:24:13;100381.66;;;9.86;98.16
62725;BME280;49026;52.600;4.694;2023-12-29T00:26:38;100377.38;;;9.83;98.83
62725;BME280;49026;52.600;4.694;2023-12-29T00:29:04;100380.78;;;9.85;98.35
62725;BME280;49026;52.600;4.694;2023-12-29T00:31:31;100376.47;;;9.84;98.40
62725;BME280;49026;52.600;4.694;2023-12-29T00:33:57;100370.56;;;9.79;98.54
62725;BME280;49026;52.600;4.694;2023-12-29T00:36:24;100372.38;;;9.77;98.50
62725;BME280;49026;52.600;4.694;2023-12-29T00:38:49;100367.28;;;9.74;98.39
62725;BME280;49026;52.600;4.694;2023-12-29T00:41:15;100371.75;;;9.72;98.63
62725;BME280;49026;52.600;4.694;2023-12-29T00:43:42;100388.56;;;9.68;98.65
62725;BME280;49026;52.600;4.694;2023-12-29T00:46:08;100408.94;;;9.61;98.44
62725;BME280;49026;52.600;4.694;2023-12-29T00:48:33;100378.78;;;9.51;98.99
62725;BME280;49026;52.600;4.694;2023-12-29T00:51:06;100392.22;;;9.43;98.89
62725;BME280;49026;52.600;4.694;2023-12-29T00:53:34;100383.63;;;9.39;99.71
62725;BME280;49026;52.600;4.694;2023-12-29T00:55:59;100394.97;;;9.40;99.97
62725;BME280;49026;52.600;4.694;2023-12-29T00:58:27;100370.34;;;9.44;100.00
62725;BME280;49026;52.600;4.694;2023-12-29T01:00:54;100368.38;;;9.49;100.00
62725;BME280;49026;52.600;4.694;2023-12-29T01:03:22;100378.56;;;9.55;99.25
62725;BME280;49026;52.600;4.694;2023-12-29T01:05:49;100344.28;;;9.60;99.29
62725;BME280;49026;52.600;4.694;2023-12-29T01:08:15;100365.91;;;9.65;99.10
62725;BME280;49026;52.600;4.694;2023-12-29T01:10:40;100368.41;;;9.68;99.11
62725;BME280;49026;52.600;4.694;2023-12-29T01:13:05;100362.31;;;9.68;98.81
62725;BME280;49026;52.600;4.694;2023-12-29T01:15:33;100308.97;;;9.67;99.00
62725;BME280;49026;52.600;4.694;2023-12-29T01:17:58;100374.50;;;9.69;99.09
62725;BME280;49026;52.600;4.694;2023-12-29T01:20:23;100378.00;;;9.69;98.48
62725;BME280;49026;52.600;4.694;2023-12-29T01:22:49;100362.31;;;9.68;98.38
62725;BME280;49026;52.600;4.694;2023-12-29T01:25:14;100383.03;;;9.53;98.53
62725;BME280;49026;52.600;4.694;2023-12-29T01:27:46;100380.19;;;9.39;99.10
62725;BME280;49026;52.600;4.694;2023-12-29T01:30:14;100392.22;;;9.22;99.79
62725;BME280;49026;52.600;4.694;2023-12-29T01:32:39;100362.06;;;9.12;100.00
62725;BME280;49026;52.600;4.694;2023-12-29T01:35:05;100343.38;;;8.99;100.00
62725;BME280;49026;52.600;4.694;2023-12-29T01:37:30;100388.81;;;8.98;100.00
62725;BME280;49026;52.600;4.694;2023-12-29T01:39:56;100389.50;;;9.03;100.00
62725;BME280;49026;52.600;4.694;2023-12-29T01:42:21;100395.66;;;9.02;100.00
62725;BME280;49026;52.600;4.694;2023-12-29T01:44:47;100391.25;;;9.03;100.00
62725;BME280;49026;52.600;4.694;2023-12-29T01:47:16;100394.66;;;9.05;100.00
62725;BME280;49026;52.600;4.694;2023-12-29T01:49:44;100424.97;;;9.12;100.00
62725;BME280;49026;52.600;4.694;2023-12-29T01:52:10;100366.25;;;9.16;100.00
62725;BME280;49026;52.600;4.694;2023-12-29T01:54:36;100408.06;;;9.19;100.00
62725;BME280;49026;52.600;4.694;2023-12-29T01:57:09;100410.63;;;9.21;100.00
62725;BME280;49026;52.600;4.694;2023-12-29T01:59:35;100394.72;;;9.25;100.00
62725;BME280;49026;52.600;4.694;2023-12-29T02:02:01;100408.59;;;9.27;99.86
62725;BME280;49026;52.600;4.694;2023-12-29T02:04:27;100402.38;;;9.30;99.74
62725;BME280;49026;52.600;4.694;2023-12-29T02:06:54;100382.38;;;9.27;99.63
62725;BME280;49026;52.600;4.694;2023-12-29T02:09:22;100411.34;;;9.24;99.76
62725;BME280;49026;52.600;4.694;2023-12-29T02:11:47;100399.59;;;9.13;99.89
62725;BME280;49026;52.600;4.694;2023-12-29T02:14:14;100411.38;;;9.02;100.00
62725;BME280;49026;52.600;4.694;2023-12-29T02:16:56;100404.88;;;8.90;100.00
62725;BME280;49026;52.600;4.694;2023-12-29T02:19:42;100420.88;;;8.83;100.00
62725;BME280;49026;52.600;4.694;2023-12-29T02:22:12;100421.78;;;8.82;100.00
62725;BME280;49026;52.600;4.694;2023-12-29T02:24:38;100419.94;;;8.85;100.00
62725;BME280;49026;52.600;4.694;2023-12-29T02:27:23;100416.38;;;8.86;100.00
62725;BME280;49026;52.600;4.694;2023-12-29T02:30:00;100437.28;;;8.88;100.00
62725;BME280;49026;52.600;4.694;2023-12-29T02:32:32;100437.34;;;8.86;100.00
62725;BME280;49026;52.600;4.694;2023-12-29T02:34:59;100439.97;;;8.86;100.00
62725;BME280;49026;52.600;4.694;2023-12-29T02:37:26;100415.59;;;8.84;100.00
62725;BME280;49026;52.600;4.694;2023-12-29T02:39:54;100409.44;;;8.85;100.00
62725;BME280;49026;52.600;4.694;2023-12-29T02:42:20;100431.97;;;8.89;100.00
62725;BME280;49026;52.600;4.694;2023-12-29T02:44:45;100445.88;;;8.92;100.00
62725;BME280;49026;52.600;4.694;2023-12-29T02:47:10;100429.19;;;8.94;99.74
62725;BME280;49026;52.600;4.694;2023-12-29T02:49:38;100420.38;;;8.95;98.25
62725;BME280;49026;52.600;4.694;2023-12-29T02:52:03;100409.06;;;8.95;97.67
62725;BME280;49026;52.600;4.694;2023-12-29T02:54:29;100397.75;;;8.94;97.29
62725;BME280;49026;52.600;4.694;2023-12-29T02:56:54;100384.56;;;8.96;96.63
62725;BME280;49026;52.600;4.694;2023-12-29T02:59:19;100402.88;;;8.97;96.13
62725;BME280;49026;52.600;4.694;2023-12-29T03:01:44;100403.81;;;8.95;95.80
62725;BME280;49026;52.600;4.694;2023-12-29T03:04:10;100418.69;;;8.94;95.86
62725;BME280;49026;52.600;4.694;2023-12-29T03:06:35;100410.06;;;8.92;96.05
62725;BME280;49026;52.600;4.694;2023-12-29T03:09:00;100415.16;;;8.95;96.15
62725;BME280;49026;52.600;4.694;2023-12-29T03:11:26;100418.59;;;8.97;96.16
62725;BME280;49026;52.600;4.694;2023-12-29T03:13:51;100416.88;;;8.96;96.17
62725;BME280;49026;52.600;4.694;2023-12-29T03:16:16;100410.78;;;8.96;96.49
62725;BME280;49026;52.600;4.694;2023-12-29T03:18:41;100411.75;;;8.93;96.72
62725;BME280;49026;52.600;4.694;2023-12-29T03:21:09;100391.78;;;8.90;96.88
62725;BME280;49026;52.600;4.694;2023-12-29T03:23:34;100406.63;;;8.90;96.98
62725;BME280;49026;52.600;4.694;2023-12-29T03:26:00;100390.00;;;8.91;96.66
62725;BME280;49026;52.600;4.694;2023-12-29T03:28:25;100395.28;;;8.89;96.76
62725;BME280;49026;52.600;4.694;2023-12-29T03:30:51;100390.97;;;8.88;96.41
62725;BME280;49026;52.600;4.694;2023-12-29T03:33:18;100387.50;;;8.88;96.37
62725;BME280;49026;52.600;4.694;2023-12-29T03:35:44;100384.75;;;8.91;95.93
62725;BME280;49026;52.600;4.694;2023-12-29T03:38:09;100375.91;;;8.94;95.56
62725;BME280;49026;52.600;4.694;2023-12-29T03:40:34;100402.09;;;8.94;95.66
62725;BME280;49026;52.600;4.694;2023-12-29T03:43:00;100375.13;;;8.92;95.29
62725;BME280;49026;52.600;4.694;2023-12-29T03:45:25;100377.75;;;8.92;95.51
62725;BME280;49026;52.600;4.694;2023-12-29T03:47:50;100368.25;;;8.89;95.78
62725;BME280;49026;52.600;4.694;2023-12-29T03:50:15;100354.28;;;8.88;95.78
62725;BME280;49026;52.600;4.694;2023-12-29T03:52:41;100368.31;;;8.87;94.73
62725;BME280;49026;52.600;4.694;2023-12-29T03:55:08;100398.69;;;8.92;95.00
62725;BME280;49026;52.600;4.694;2023-12-29T03:57:36;100376.91;;;8.91;94.70
62725;BME280;49026;52.600;4.694;2023-12-29T04:00:01;100389.00;;;8.94;94.03
62725;BME280;49026;52.600;4.694;2023-12-29T04:02:27;100393.16;;;8.99;93.76
62725;BME280;49026;52.600;4.694;2023-12-29T04:04:53;100362.56;;;9.00;94.16
62725;BME280;49026;52.600;4.694;2023-12-29T04:07:18;100386.03;;;9.03;93.28
62725;BME280;49026;52.600;4.694;2023-12-29T04:09:43;100382.56;;;9.02;92.98
62725;BME280;49026;52.600;4.694;2023-12-29T04:12:09;100379.94;;;9.02;93.77
62725;BME280;49026;52.600;4.694;2023-12-29T04:14:34;100378.94;;;9.05;94.69
62725;BME280;49026;52.600;4.694;2023-12-29T04:16:59;100386.69;;;9.08;94.34
62725;BME280;49026;52.600;4.694;2023-12-29T04:19:28;100367.38;;;9.11;93.95
62725;BME280;49026;52.600;4.694;2023-12-29T04:21:53;100379.34;;;9.16;94.78
62725;BME280;49026;52.600;4.694;2023-12-29T04:24:18;100378.31;;;9.20;94.73
62725;BME280;49026;52.600;4.694;2023-12-29T04:26:43;100376.50;;;9.22;94.88
62725;BME280;49026;52.600;4.694;2023-12-29T04:29:11;100367.69;;;9.23;94.60
62725;BME280;49026;52.600;4.694;2023-12-29T04:31:36;100379.78;;;9.27;94.84
62725;BME280;49026;52.600;4.694;2023-12-29T04:34:01;100370.06;;;9.30;95.34
62725;BME280;49026;52.600;4.694;2023-12-29T04:36:27;100365.59;;;9.32;95.09
62725;BME280;49026;52.600;4.694;2023-12-29T04:38:52;100382.94;;;9.36;95.24
62725;BME280;49026;52.600;4.694;2023-12-29T04:41:17;100387.16;;;9.38;94.87
62725;BME280;49026;52.600;4.694;2023-12-29T04:43:42;100382.63;;;9.42;94.73
62725;BME280;49026;52.600;4.694;2023-12-29T04:46:11;100391.31;;;9.44;94.97
62725;BME280;49026;52.600;4.694;2023-12-29T04:48:39;100388.69;;;9.44;94.85
62725;BME280;49026;52.600;4.694;2023-12-29T04:51:04;100385.06;;;9.46;94.56
62725;BME280;49026;52.600;4.694;2023-12-29T04:53:29;100392.03;;;9.48;94.33
62725;BME280;49026;52.600;4.694;2023-12-29T04:55:57;100392.16;;;9.44;94.48
62725;BME280;49026;52.600;4.694;2023-12-29T04:58:23;100383.38;;;9.45;94.41
62725;BME280;49026;52.600;4.694;2023-12-29T05:00:48;100388.53;;;9.47;94.69
62725;BME280;49026;52.600;4.694;2023-12-29T05:03:13;100387.63;;;9.48;94.37
62725;BME280;49026;52.600;4.694;2023-12-29T05:05:39;100390.25;;;9.48;93.77
62725;BME280;49026;52.600;4.694;2023-12-29T05:08:04;100388.53;;;9.47;93.86
62725;BME280;49026;52.600;4.694;2023-12-29T05:10:31;100390.31;;;9.46;93.47
62725;BME280;49026;52.600;4.694;2023-12-29T05:12:59;100400.88;;;9.45;93.76
62725;BME280;49026;52.600;4.694;2023-12-29T05:15:25;100380.75;;;9.45;93.36
62725;BME280;49026;52.600;4.694;2023-12-29T05:17:50;100382.63;;;9.42;93.17
62725;BME280;49026;52.600;4.694;2023-12-29T05:20:18;100401.00;;;9.42;93.28
62725;BME280;49026;52.600;4.694;2023-12-29T05:22:43;100409.81;;;9.41;93.12
62725;BME280;49026;52.600;4.694;2023-12-29T05:25:09;100401.81;;;9.44;92.61
62725;BME280;49026;52.600;4.694;2023-12-29T05:27:36;100384.41;;;9.41;92.46
62725;BME280;49026;52.600;4.694;2023-12-29T05:30:05;100390.56;;;9.40;92.30
62725;BME280;49026;52.600;4.694;2023-12-29T05:32:31;100380.97;;;9.41;92.95
62725;BME280;49026;52.600;4.694;2023-12-29T05:34:58;100382.81;;;9.39;92.80
62725;BME280;49026;52.600;4.694;2023-12-29T05:37:24;100384.47;;;9.40;92.78
62725;BME280;49026;52.600;4.694;2023-12-29T05:39:52;100374.00;;;9.40;92.55
62725;BME280;49026;52.600;4.694;2023-12-29T05:42:17;100387.88;;;9.42;92.50
62725;BME280;49026;52.600;4.694;2023-12-29T05:44:43;100382.56;;;9.43;92.82
62725;BME280;49026;52.600;4.694;2023-12-29T05:47:11;100372.81;;;9.47;92.33
62725;BME280;49026;52.600;4.694;2023-12-29T05:49:37;100368.38;;;9.49;92.56
62725;BME280;49026;52.600;4.694;2023-12-29T05:52:07;100355.13;;;9.52;92.07
62725;BME280;49026;52.600;4.694;2023-12-29T05:54:33;100360.28;;;9.54;92.21
62725;BME280;49026;52.600;4.694;2023-12-29T05:56:58;100361.28;;;9.51;91.88
62725;BME280;49026;52.600;4.694;2023-12-29T05:59:24;100363.13;;;9.49;91.87
62725;BME280;49026;52.600;4.694;2023-12-29T06:01:49;100361.41;;;9.48;92.36
62725;BME280;49026;52.600;4.694;2023-12-29T06:04:15;100355.38;;;9.46;92.47
62725;BME280;49026;52.600;4.694;2023-12-29T06:06:42;100366.91;;;9.42;92.49
62725;BME280;49026;52.600;4.694;2023-12-29T06:09:09;100371.31;;;9.41;92.59
62725;BME280;49026;52.600;4.694;2023-12-29T06:11:34;100346.00;;;9.40;93.14
62725;BME280;49026;52.600;4.694;2023-12-29T06:13:59;100356.56;;;9.39;93.10
62725;BME280;49026;52.600;4.694;2023-12-29T06:16:25;100373.09;;;9.41;93.49
62725;BME280;49026;52.600;4.694;2023-12-29T06:18:52;100386.06;;;9.44;93.47
62725;BME280;49026;52.600;4.694;2023-12-29T06:21:18;100388.63;;;9.45;93.33
62725;BME280;49026;52.600;4.694;2023-12-29T06:23:44;100371.97;;;9.46;93.64
62725;BME280;49026;52.600;4.694;2023-12-29T06:26:18;100359.78;;;9.45;93.37
62725;BME280;49026;52.600;4.694;2023-12-29T06:28:45;100386.84;;;9.46;93.27
62725;BME280;49026;52.600;4.694;2023-12-29T06:31:10;100389.53;;;9.44;93.23
62725;BME280;49026;52.600;4.694;2023-12-29T06:33:36;100387.81;;;9.43;93.09
62725;BME280;49026;52.600;4.694;2023-12-29T06:36:02;100380.97;;;9.41;93.00
62725;BME280;49026;52.600;4.694;2023-12-29T06:38:30;100393.13;;;9.42;93.58
62725;BME280;49026;52.600;4.694;2023-12-29T06:40:55;100393.28;;;9.39;93.23
62725;BME280;49026;52.600;4.694;2023-12-29T06:43:23;100383.69;;;9.38;93.14
62725;BME280;49026;52.600;4.694;2023-12-29T06:45:48;100375.91;;;9.36;93.10
62725;BME280;49026;52.600;4.694;2023-12-29T06:48:16;100384.72;;;9.34;93.28
62725;BME280;49026;52.600;4.694;2023-12-29T06:50:41;100395.09;;;9.37;93.09
62725;BME280;49026;52.600;4.694;2023-12-29T06:53:07;100393.41;;;9.36;93.17
62725;BME280;49026;52.600;4.694;2023-12-29T06:55:32;100389.13;;;9.33;92.91
62725;BME280;49026;52.600;4.694;2023-12-29T06:57:59;100392.81;;;9.29;93.33
62725;BME280;49026;52.600;4.694;2023-12-29T07:00:25;100390.19;;;9.29;93.50
62725;BME280;49026;52.600;4.694;2023-12-29T07:02:50;100388.28;;;9.33;93.41
62725;BME280;49026;52.600;4.694;2023-12-29T07:05:15;100389.84;;;9.37;93.50
62725;BME280;49026;52.600;4.694;2023-12-29T07:07:41;100375.72;;;9.41;93.41
62725;BME280;49026;52.600;4.694;2023-12-29T07:10:12;100391.31;;;9.44;93.60
62725;BME280;49026;52.600;4.694;2023-12-29T07:12:42;100383.38;;;9.45;93.36
62725;BME280;49026;52.600;4.694;2023-12-29T07:15:08;100378.13;;;9.45;93.28
62725;BME280;49026;52.600;4.694;2023-12-29T07:17:34;100397.34;;;9.46;93.24
62725;BME280;49026;52.600;4.694;2023-12-29T07:20:00;100381.53;;;9.48;93.40
62725;BME280;49026;52.600;4.694;2023-12-29T07:22:27;100377.16;;;9.48;93.39
62725;BME280;49026;52.600;4.694;2023-12-29T07:24:53;100377.00;;;9.51;93.59
62725;BME280;49026;52.600;4.694;2023-12-29T07:27:18;100389.94;;;9.56;93.41
62725;BME280;49026;52.600;4.694;2023-12-29T07:29:43;100389.81;;;9.59;93.28
62725;BME280;49026;52.600;4.694;2023-12-29T07:32:09;100387.09;;;9.60;93.39
62725;BME280;49026;52.600;4.694;2023-12-29T07:34:34;100377.53;;;9.59;93.31
62725;BME280;49026;52.600;4.694;2023-12-29T07:36:59;100395.84;;;9.61;93.09
62725;BME280;49026;52.600;4.694;2023-12-29T07:39:25;100411.63;;;9.59;93.16
62725;BME280;49026;52.600;4.694;2023-12-29T07:41:52;100403.84;;;9.58;93.30
62725;BME280;49026;52.600;4.694;2023-12-29T07:44:18;100412.47;;;9.60;92.93
62725;BME280;49026;52.600;4.694;2023-12-29T07:46:46;100411.63;;;9.59;93.21
62725;BME280;49026;52.600;4.694;2023-12-29T07:49:11;100411.63;;;9.59;93.36
62725;BME280;49026;52.600;4.694;2023-12-29T07:51:41;100422.97;;;9.60;93.36
62725;BME280;49026;52.600;4.694;2023-12-29T07:54:09;100409.91;;;9.58;93.23
62725;BME280;49026;52.600;4.694;2023-12-29T07:56:34;100419.63;;;9.56;93.17
62725;BME280;49026;52.600;4.694;2023-12-29T07:59:02;100415.28;;;9.55;93.24
62725;BME280;49026;52.600;4.694;2023-12-29T08:01:27;100422.31;;;9.55;93.18
62725;BME280;49026;52.600;4.694;2023-12-29T08:03:52;100429.34;;;9.54;93.14
62725;BME280;49026;52.600;4.694;2023-12-29T08:06:18;100432.88;;;9.53;93.18
62725;BME280;49026;52.600;4.694;2023-12-29T08:08:43;100437.22;;;9.54;92.93
62725;BME280;49026;52.600;4.694;2023-12-29T08:11:15;100431.97;;;9.54;93.30
62725;BME280;49026;52.600;4.694;2023-12-29T08:13:44;100435.38;;;9.56;93.32
62725;BME280;49026;52.600;4.694;2023-12-29T08:16:12;100427.38;;;9.59;93.28
62725;BME280;49026;52.600;4.694;2023-12-29T08:18:37;100428.28;;;9.58;93.61
62725;BME280;49026;52.600;4.694;2023-12-29T08:21:05;100425.59;;;9.60;93.46
62725;BME280;49026;52.600;4.694;2023-12-29T08:23:30;100432.63;;;9.59;93.58
62725;BME280;49026;52.600;4.694;2023-12-29T08:25:58;100429.06;;;9.60;93.51
62725;BME280;49026;52.600;4.694;2023-12-29T08:28:26;100428.16;;;9.61;93.25
62725;BME280;49026;52.600;4.694;2023-12-29T08:30:54;100415.75;;;9.65;93.19
62725;BME280;49026;52.600;4.694;2023-12-29T08:33:19;100419.16;;;9.67;92.90
62725;BME280;49026;52.600;4.694;2023-12-29T08:35:47;100420.09;;;9.66;92.88
62725;BME280;49026;52.600;4.694;2023-12-29T08:38:12;100421.88;;;9.66;92.73
62725;BME280;49026;52.600;4.694;2023-12-29T08:40:41;100433.16;;;9.68;92.43
62725;BME280;49026;52.600;4.694;2023-12-29T08:43:07;100414.66;;;9.71;92.52
62725;BME280;49026;52.600;4.694;2023-12-29T08:45:32;100410.97;;;9.75;91.64
62725;BME280;49026;52.600;4.694;2023-12-29T08:47:58;100420.56;;;9.76;91.88
62725;BME280;49026;52.600;4.694;2023-12-29T08:50:23;100400.34;;;9.78;91.69
62725;BME280;49026;52.600;4.694;2023-12-29T08:52:48;100426.59;;;9.78;91.56
62725;BME280;49026;52.600;4.694;2023-12-29T08:55:16;100425.75;;;9.77;91.09
62725;BME280;49026;52.600;4.694;2023-12-29T08:57:44;100417.94;;;9.76;91.55
62725;BME280;49026;52.600;4.694;2023-12-29T09:00:09;100421.34;;;9.78;91.54
62725;BME280;49026;52.600;4.694;2023-12-29T09:02:35;100415.19;;;9.79;91.25
62725;BME280;49026;52.600;4.694;2023-12-29T09:05:02;100430.94;;;9.79;90.55
62725;BME280;49026;52.600;4.694;2023-12-29T09:07:28;100437.34;;;9.72;90.71
62725;BME280;49026;52.600;4.694;2023-12-29T09:09:54;100433.94;;;9.70;91.17
62725;BME280;49026;52.600;4.694;2023-12-29T09:12:19;100438.28;;;9.71;91.31
62725;BME280;49026;52.600;4.694;2023-12-29T09:14:44;100429.47;;;9.72;91.56
62725;BME280;49026;52.600;4.694;2023-12-29T09:17:10;100443.31;;;9.75;91.43
62725;BME280;49026;52.600;4.694;2023-12-29T09:19:38;100426.66;;;9.76;91.56
62725;BME280;49026;52.600;4.694;2023-12-29T09:22:04;100450.97;;;9.80;91.45
62725;BME280;49026;52.600;4.694;2023-12-29T09:24:31;100444.69;;;9.84;91.23
62725;BME280;49026;52.600;4.694;2023-12-29T09:26:56;100449.00;;;9.85;91.15
62725;BME280;49026;52.600;4.694;2023-12-29T09:29:24;100445.47;;;9.86;91.09
62725;BME280;49026;52.600;4.694;2023-12-29T09:31:49;100449.88;;;9.86;91.56
62725;BME280;49026;52.600;4.694;2023-12-29T09:34:14;100454.31;;;9.83;91.12
62725;BME280;49026;52.600;4.694;2023-12-29T09:36:42;100460.44;;;9.84;91.21
62725;BME280;49026;52.600;4.694;2023-12-29T09:39:07;100461.34;;;9.83;91.11
62725;BME280;49026;52.600;4.694;2023-12-29T09:41:33;100451.63;;;9.85;90.95
62725;BME280;49026;52.600;4.694;2023-12-29T09:44:01;100460.97;;;9.92;90.86
62725;BME280;49026;52.600;4.694;2023-12-29T09:46:32;100467.66;;;9.99;90.46
62725;BME280;49026;52.600;4.694;2023-12-29T09:48:58;100461.25;;;10.05;89.72
62725;BME280;49026;52.600;4.694;2023-12-29T09:51:30;100467.09;;;10.12;88.44
62725;BME280;49026;52.600;4.694;2023-12-29T09:53:56;100471.25;;;10.17;86.29
62725;BME280;49026;52.600;4.694;2023-12-29T09:56:23;100476.50;;;10.17;86.62
62725;BME280;49026;52.600;4.694;2023-12-29T09:58:52;100442.19;;;10.20;85.82
62725;BME280;49026;52.600;4.694;2023-12-29T10:01:20;100475.47;;;10.20;86.17
62725;BME280;49026;52.600;4.694;2023-12-29T10:03:47;100476.56;;;10.16;86.51
62725;BME280;49026;52.600;4.694;2023-12-29T10:06:20;100474.91;;;10.13;86.11
62725;BME280;49026;52.600;4.694;2023-12-29T10:08:49;100510.88;;;10.11;86.52
62725;BME280;49026;52.600;4.694;2023-12-29T10:11:22;100507.41;;;10.11;86.04
62725;BME280;49026;52.600;4.694;2023-12-29T10:13:50;100499.78;;;10.05;86.18
62725;BME280;49026;52.600;4.694;2023-12-29T10:16:27;100522.50;;;10.06;85.00
62725;BME280;49026;52.600;4.694;2023-12-29T10:19:10;100506.06;;;10.00;84.94
62725;BME280;49026;52.600;4.694;2023-12-29T10:24:21;100507.28;;;9.93;84.91
62725;BME280;49026;52.600;4.694;2023-12-29T10:26:49;100512.53;;;9.93;85.05
62725;BME280;49026;52.600;4.694;2023-12-29T10:29:17;100504.78;;;9.90;85.63
62725;BME280;49026;52.600;4.694;2023-12-29T10:31:48;100512.72;;;9.89;86.37
62725;BME280;49026;52.600;4.694;2023-12-29T10:34:17;100509.31;;;9.87;86.68
62725;BME280;49026;52.600;4.694;2023-12-29T10:36:47;100517.13;;;9.88;86.55
62725;BME280;49026;52.600;4.694;2023-12-29T10:39:14;100500.34;;;9.92;84.74
62725;BME280;49026;52.600;4.694;2023-12-29T10:41:40;100496.66;;;9.96;84.15
62725;BME280;49026;52.600;4.694;2023-12-29T10:44:08;100521.03;;;9.98;84.87
62725;BME280;49026;52.600;4.694;2023-12-29T10:46:34;100499.16;;;9.99;84.46
62725;BME280;49026;52.600;4.694;2023-12-29T10:49:07;100508.69;;;10.00;82.95
62725;BME280;49026;52.600;4.694;2023-12-29T10:51:33;100504.25;;;10.02;81.11
62725;BME280;49026;52.600;4.694;2023-12-29T10:53:58;100508.50;;;10.05;82.24
62725;BME280;49026;52.600;4.694;2023-12-29T10:56:24;100509.44;;;10.04;81.72
62725;BME280;49026;52.600;4.694;2023-12-29T10:59:03;100522.56;;;10.04;81.75
62725;BME280;49026;52.600;4.694;2023-12-29T11:01:31;100534.75;;;10.05;82.45
62725;BME280;49026;52.600;4.694;2023-12-29T11:04:01;100519.06;;;10.04;82.55
62725;BME280;49026;52.600;4.694;2023-12-29T11:06:27;100526.16;;;10.01;82.70
62725;BME280;49026;52.600;4.694;2023-12-29T11:08:53;100524.38;;;10.02;82.89
62725;BME280;49026;52.600;4.694;2023-12-29T11:11:21;100532.00;;;10.08;82.06
62725;BME280;49026;52.600;4.694;2023-12-29T11:13:47;100530.09;;;10.12;82.64
62725;BME280;49026;52.600;4.694;2023-12-29T11:16:14;100529.13;;;10.14;82.49
62725;BME280;49026;52.600;4.694;2023-12-29T11:18:43;100542.06;;;10.19;81.13
62725;BME280;49026;52.600;4.694;2023-12-29T11:21:10;100535.94;;;10.18;81.07
62725;BME280;49026;52.600;4.694;2023-12-29T11:23:35;100545.72;;;10.15;80.39
62725;BME280;49026;52.600;4.694;2023-12-29T11:26:02;100531.81;;;10.13;81.71
62725;BME280;49026;52.600;4.694;2023-12-29T11:28:28;100548.03;;;10.23;81.46
62725;BME280;49026;52.600;4.694;2023-12-29T11:30:54;100553.22;;;10.24;80.83
62725;BME280;49026;52.600;4.694;2023-12-29T11:33:40;100558.19;;;10.10;79.85
62725;BME280;49026;52.600;4.694;2023-12-29T11:36:18;100549.19;;;9.95;79.88
62725;BME280;49026;52.600;4.694;2023-12-29T11:39:36;100551.41;;;9.83;78.94
62725;BME280;49026;52.600;4.694;2023-12-29T11:42:14;100552.53;;;9.78;79.19
62725;BME280;49026;52.600;4.694;2023-12-29T11:44:42;100564.88;;;9.76;79.85
62725;BME280;49026;52.600;4.694;2023-12-29T11:47:35;100555.34;;;9.73;79.13
62725;BME280;49026;52.600;4.694;2023-12-29T11:50:01;100544.97;;;9.70;77.91
62725;BME280;49026;52.600;4.694;2023-12-29T11:52:38;100542.56;;;9.66;78.55
62725;BME280;49026;52.600;4.694;2023-12-29T11:55:11;100541.09;;;9.58;79.18
62725;BME280;49026;52.600;4.694;2023-12-29T11:57:36;100558.78;;;9.53;78.60
62725;BME280;49026;52.600;4.694;2023-12-29T12:00:03;100561.47;;;9.52;78.61
62725;BME280;49026;52.600;4.694;2023-12-29T12:02:30;100559.78;;;9.51;78.69
62725;BME280;49026;52.600;4.694;2023-12-29T12:04:56;100553.59;;;9.52;78.99
62725;BME280;49026;52.600;4.694;2023-12-29T12:09:46;100548.16;;;9.56;80.14
62725;BME280;49026;52.600;4.694;2023-12-29T12:12:14;100535.97;;;9.55;80.34
62725;BME280;49026;52.600;4.694;2023-12-29T12:14:59;100544.63;;;9.57;80.11
62725;BME280;49026;52.600;4.694;2023-12-29T12:17:31;100546.31;;;9.58;80.76
62725;BME280;49026;52.600;4.694;2023-12-29T12:19:59;100553.28;;;9.59;80.32
62725;BME280;49026;52.600;4.694;2023-12-29T12:22:31;100559.44;;;9.58;79.80
62725;BME280;49026;52.600;4.694;2023-12-29T12:24:58;100554.25;;;9.57;80.33
62725;BME280;49026;52.600;4.694;2023-12-29T12:27:27;100570.88;;;9.57;79.55
62725;BME280;49026;52.600;4.694;2023-12-29T12:29:56;100557.75;;;9.57;79.72
62725;BME280;49026;52.600;4.694;2023-12-29T12:32:24;100548.88;;;9.60;80.23
62725;BME280;49026;52.600;4.694;2023-12-29T12:34:50;100540.97;;;9.61;79.73
62725;BME280;49026;52.600;4.694;2023-12-29T12:37:22;100530.47;;;9.61;79.80
62725;BME280;49026;52.600;4.694;2023-12-29T12:39:48;100543.66;;;9.60;79.88
62725;BME280;49026;52.600;4.694;2023-12-29T12:42:15;100550.66;;;9.59;79.59
62725;BME280;49026;52.600;4.694;2023-12-29T12:44:55;100544.50;;;9.60;80.41
62725;BME280;49026;52.600;4.694;2023-12-29T12:47:31;100547.81;;;9.66;79.47
62725;BME280;49026;52.600;4.694;2023-12-29T12:50:01;100558.31;;;9.66;80.78
62725;BME280;49026;52.600;4.694;2023-12-29T12:52:31;100558.31;;;9.66;79.64
62725;BME280;49026;52.600;4.694;2023-12-29T12:54:57;100533.94;;;9.62;80.04
62725;BME280;49026;52.600;4.694;2023-12-29T12:57:25;100554.97;;;9.60;80.38
62725;BME280;49026;52.600;4.694;2023-12-29T12:59:52;100545.41;;;9.59;80.60
62725;BME280;49026;52.600;4.694;2023-12-29T13:02:18;100539.41;;;9.57;80.65
62725;BME280;49026;52.600;4.694;2023-12-29T13:04:45;100551.69;;;9.55;81.33